• 1/8
  • 2/8
  • 3/8
  • 4/8
  • 5/8
  • 6/8
  • 7/8
  • 8/8
GP d'Olanda

MX 2020. Arminas Jasikonis apre la MXGP olandese

L’ufficiale Husqvarna Rockstar si è aggiudicato la qualifica MXGP che ha visto quattro battistrada diversi, mentre Cairoli è 10°. A Geerts la MX2, mentre la prima manche dell’Europeo 250 va a Boegh e quella WMX alla Fontanesi
di Massimo Zanzani

VALKENSWAARD - La roulette innescata dalla terribile sabbia nera del tracciato di Valkenswaard ha mietuto subito la sua spietata selezione con una qualificazione MXGP al cardiopalma.

Vedi anche

Pur avendo segnato il miglior crono della mattinata, Jeffrey Herlings è uscito sconfitto nel primo scontro della seconda tappa iridata che lo ha costretto ad accontentarsi della seconda piazza, alle spalle del tenace lituano Arminas Jasikonis, a causa dell’indurimento delle braccia cominciato già al secondo giro.

Ancora peggio è andata a Tim Gajser, partito al comando e rimasto appiedato dalla sua Honda ufficiale dopo 5 tornate quando sembrava non aver problemi a tenere stretto il suo ruolo di battistrada, che per tre giri è passato a Jorge Prado poi rilevato da Herlings giusto il tempo per la mossa attenta di Jasikonis che a meno minuti dalla bandiera a scacchi si è installato definitivamente in testa al gruppo.

Jorge Prado, KTM
Jorge Prado, KTM

 

Lo spagnolo campione del mondo in carica MX2 è invece terminato 3° davanti a Pauls Jonass e Shan Simpson, mentre Tony Cairoli messo a dura prova dalla spalla ancora sottotono e dai legamenti del ginocchio si è dovuto accontentare della 10ª piazza; 15° Ivo Monticelli, 17° Michele Cervellin e 25° Alex Lupino.

Senza storie invece la MX2 grazie alla prova di forza di Jago Geerts che per tutta la gara è stato davanti a Tom Vialle e al pilota di casa Bas Vaessen; 18° Morgan Lesiardo mentre Alberto Forato si è ritirato dopo una caduta.

Kiara Fontanesi, KTM
Kiara Fontanesi, KTM

 

Kiara Fontanesi si è invece imposta nella prima manche WMX davanti a Nancy Van De Ven e a Larissa Papenmeier.

La classe EMX250 è stata monopolizzata dai piloti nordici con il danese Bastian Boegh che si è lasciato alle spalle lo svedese Isac Gifting e l’estone Jorgen Talviku; bene Gianluca Facchetti 6° mentre Andrea Adamo ha chiuso 8° e Mattia Guadagnini 12° dopo un avvio a metà gruppo ed una scivolata.

Guarda gli Orari TV del GP d'Olanda

MXGP - La classifica della Qualifyng Race (primi 20)

Pos Nr Rider Nat. Fed. Bike Time laps Diff. First Diff. Prev. Bestlaptime in lap Speed
1 27 Jasikonis, Arminas LTU LMSF Husqvarna 24:57.401 12 0:00.000 0:00.000 1:54.157 10 51.4
2 84 Herlings, Jeffrey NED KNMV KTM 24:58.556 12 0:01.155 0:01.155 1:54.497 5 51.2
3 61 Prado, Jorge ESP RFME KTM 25:16.398 12 0:18.997 0:17.842 1:52.883 2 51.9
4 41 Jonass, Pauls LAT LAMSF Husqvarna 25:17.803 12 0:20.402 0:01.405 1:54.050 2 51.4
5 24 Simpson, Shaun GBR ACU KTM 25:22.725 12 0:25.324 0:04.922 1:55.333 5 50.8
6 259 Coldenhoff, Glenn NED KNMV GASGAS 25:27.965 12 0:30.564 0:05.240 1:54.621 3 51.1
7 91 Seewer, Jeremy SUI FMS Yamaha 25:30.032 12 0:32.631 0:02.067 1:56.150 1 50.5
8 89 Van Horebeek, Jeremy BEL FFM Honda 25:33.690 12 0:36.289 0:03.658 1:54.932 3 51
9 25 Desalle, Clement BEL FMB Kawasaki 25:38.318 12 0:40.917 0:04.628 1:55.664 4 50.7
10 222 Cairoli, Antonio ITA FMI KTM 25:44.262 12 0:46.861 0:05.944 1:56.641 4 50.3
11 4 Tonus, Arnaud SUI FMS Yamaha 25:51.753 12 0:54.352 0:07.491 1:57.403 6 49.9
12 43 Evans, Mitchell AUS MA Honda 25:53.244 12 0:55.843 0:01.491 1:56.501 2 50.3
13 21 Paulin, Gautier FRA MCM Yamaha 25:58.390 12 1:00.989 0:05.146 1:53.872 2 51.5
14 151 Kullas, Harri EST EMF Honda 25:58.425 12 1:01.024 0:00.035 1:58.692 5 49.4
15 128 Monticelli, Ivo ITA FMI GASGAS 26:06.114 12 1:08.713 0:07.689 1:58.488 3 49.5
16 29 Jacobi, Henry GER DMSB Yamaha 26:12.638 12 1:15.237 0:06.524 1:58.572 4 49.4
17 747 Cervellin, Michele ITA FMI Yamaha 26:27.894 12 1:30.493 0:15.256 2:00.842 3 48.5
18 6 Paturel, Benoit FRA FFM Honda 25:56.763 12 0:59.362 -1:28.869 1:58.065 5 49.7
19 777 Bobryshev, Evgeny RUS MFR Husqvarna 26:31.660 12 1:34.259 0:34.897 1:58.963 9 49.3
20 107 van Berkel, Lars NED KNMV Husqvarna 26:32.485 12 1:35.084 0:00.825 2:00.731 12 48.6

MX2 - La classifica della Qualifyng Race (primi 20)

Pos Nr Rider Nat. Fed. Bike Time laps Diff. First Diff. Prev. Bestlaptime in lap Speed
1 193 Geerts, Jago BEL FMB Yamaha 25:01.872 12 0:00.000 0:00.000 1:52.903 1 51.9
2 28 Vialle, Tom FRA FFM KTM 25:16.280 12 0:14.408 0:14.408 1:53.616 1 51.6
3 98 Vaessen, Bas NED KNMV KTM 25:20.464 12 0:18.592 0:04.184 1:54.644 2 51.1
4 711 Hofer, Rene AUT AMF KTM 25:27.849 12 0:25.977 0:07.385 1:55.321 2 50.8
5 39 Van De Moosdijk, Roan NED KNMV Kawasaki 25:29.875 12 0:28.003 0:02.026 1:55.765 3 50.6
6 959 Renaux, Maxime FRA FFM Yamaha 25:30.851 12 0:28.979 0:00.976 1:54.436 1 51.2
7 14 Beaton, Jed AUS MA Husqvarna 25:36.825 12 0:34.953 0:05.974 1:55.937 4 50.6
8 161 Östlund, Alvin SWE SVEMO Honda 25:52.690 12 0:50.818 0:15.865 1:56.949 3 50.1
9 11 Haarup, Mikkel DEN DMU Kawasaki 26:01.600 12 0:59.728 0:08.910 1:58.169 2 49.6
10 12 Harrison, Mitchell USA AMA Kawasaki 26:20.847 12 1:18.975 0:19.247 2:00.874 2 48.5
11 426 Mewse, Conrad GBR ACU KTM 26:22.549 12 1:20.677 0:01.702 1:57.816 8 49.8
12 516 Laengenfelder, Simon GER DMSB GASGAS 26:30.094 12 1:28.222 0:07.545 1:59.191 4 49.2
13 199 Crawford, Nathan AUS MA Honda 26:46.406 12 1:44.534 0:16.312 2:01.860 12 48.1
14 919 Watson, Ben GBR ACU Yamaha 25:55.337 12 0:53.465 -1:08.931 1:57.368 4 49.9
15 47 Malkiewicz, Bailey AUS MA Honda 26:47.642 12 1:45.770 0:52.305 2:02.636 4 47.8
16 109 Edelbacher, Roland AUT AMF Husqvarna 27:05.302 12 2:03.430 0:17.660 2:02.843 1 47.7
17 75 Roosiorg, Hardi EST EMF KTM 25:07.253 11 1 lap 1 lap 2:03.074 4 47.6
18 44 Lesiardo, Morgan ITA FMI Yamaha 25:08.482 11 1 lap 0:01.229 2:04.062 2 47.2
19 172 Boisrame, Mathys FRA FFM Kawasaki 26:35.874 12 1:34.002 -1 laps 1:56.328 2 50.4
20 326 Gilbert, Josh GBR ACU Husqvarna 25:10.796 11 1 lap 1 lap 2:04.270 1 47.2
Leggi anche
Cosa stai cercando?
Invia feedback
La tua opinione conta